My webcam more information My webcam


Thunder radar more information blitzortung!


Rain radar more information rain snow radar


Visit our other weather sites:

Template documentation
and downloads

And another site



Nearby METAR Reports

   
KAVP - Albrightsville, PA
Updated: May 20 2018 5:54 am
Overcast  
Overcast  
   Wind: WSW 4.6 mph
Wind: WSW 4.6 mph
Temperature: 60.8°F
Dew Point: 60.8°F
Humidity: 100%
Barometer: 29.96 inHg
Clouds: Overcast
Visibility: 7 mi
Cloud details: Overcast 91 m
KAVP 200954Z 24004KT 7SM OVC003 16/16 A2996 RMK AO2 SLP140 T01610161 $
KIWA - Apache Junction, AZ
Updated: May 20 2018 5:55 am
Clear  
Clear  
   Wind: SE 5.8 mph
Wind: SE 5.8 mph
Temperature: 66.2°F
Dew Point: 35.6°F
Humidity: 32%
Barometer: 29.82 inHg
Clouds: Clear
Visibility: 10 mi
Cloud details: Clear
KIWA 200955Z AUTO 14005KT 10SM CLR 19/02 A2982 RMK AO2 T01950017
KPKB - Blue Rock, OH
Updated: May 20 2018 5:53 am
Mist, Overcast  
Mist, Overcast  
   Wind: SW 5.8 mph
Wind: SW 5.8 mph
Temperature: 66.2°F
Dew Point: 64.4°F
Humidity: 94%
Barometer: 30.06 inHg
Clouds: Overcast
Visibility: 6 mi
Cloud details: Overcast 122 m
KPKB 200953Z AUTO 22005KT 6SM BR OVC004 19/18 A3006 RMK AO2 SLP173 T01940183 $
KHVN - Branford, CT
Updated: May 20 2018 5:53 am
Fog, Overcast  
Fog, Overcast  
   Wind: Calm
Wind: Calm
Temperature: 59°F
Dew Point: 57.2°F
Humidity: 94%
Barometer: 29.96 inHg
Clouds: Overcast
Visibility: less than 1 mi
Cloud details: Overcast 61 m
KHVN 200953Z 00000KT M1/4SM R02/1400FT FG VV002 15/14 A2996 RMK AO2 SLP144 T01500144
KPHX - Carefree, AZ
Updated: May 20 2018 5:51 am
Clear  
Clear  
   Wind: North 5.8 mph
Wind: North 5.8 mph
Temperature: 78.8°F
Dew Point: 33.8°F
Humidity: 20%
Barometer: 29.77 inHg
Clouds: Clear
Visibility: 10 mi
Cloud details: Clear
KPHX 200951Z 36005KT 10SM CLR 26/01 A2977 RMK AO2 SLP062 T02610011
 

Script developed by  Saratoga-weather.org Adapted for the template by  Weerstation Leuven

You find our weather info also at:

WeatherCloud

Weather Underground

Citizen Weather Observer Program (CWOP)

HAMweather, WeatherForYou, PWS Weather

Anything Weather